createdAt,value
2022-07-26T00:00:32.305Z,85.30
2022-07-26T00:02:59.597Z,85.70
2022-07-26T00:05:26.961Z,87.20
2022-07-26T00:08:10.936Z,89.40
2022-07-26T00:10:42.888Z,90.20
2022-07-26T00:13:11.400Z,86.90
2022-07-26T00:15:39.262Z,88.00
2022-07-26T00:18:08.085Z,89.20
2022-07-26T00:20:40.058Z,87.30
2022-07-26T00:23:09.420Z,89.40
2022-07-26T00:25:36.907Z,89.30
2022-07-26T00:28:05.034Z,90.50
2022-07-26T00:30:33.022Z,90.20
2022-07-26T00:33:00.783Z,91.00
2022-07-26T00:35:28.271Z,91.80
2022-07-26T00:37:55.666Z,92.50
2022-07-26T00:40:23.539Z,92.30
2022-07-26T00:42:51.288Z,90.70
2022-07-26T00:45:18.895Z,91.60
2022-07-26T00:47:46.311Z,91.60
2022-07-26T00:50:16.180Z,90.80
2022-07-26T00:52:44.904Z,91.00
2022-07-26T00:55:13.421Z,91.00
2022-07-26T00:57:41.459Z,93.30
2022-07-26T01:00:16.261Z,92.60
2022-07-26T01:02:44.554Z,92.30
2022-07-26T01:05:12.339Z,92.00
2022-07-26T01:07:41.136Z,92.20
2022-07-26T01:10:12.710Z,92.70
2022-07-26T01:12:44.097Z,92.50
2022-07-26T01:15:13.940Z,93.30
2022-07-26T01:17:42.139Z,93.40
2022-07-26T01:20:11.338Z,94.10
2022-07-26T01:22:39.342Z,93.80
2022-07-26T01:25:07.646Z,92.80
2022-07-26T01:27:39.540Z,93.00
2022-07-26T01:30:10.023Z,93.60
2022-07-26T01:32:37.698Z,93.90
2022-07-26T01:35:06.977Z,93.50
2022-07-26T01:37:34.277Z,93.70
2022-07-26T01:40:01.906Z,93.60
2022-07-26T01:42:29.197Z,94.50
2022-07-26T01:44:56.506Z,94.50
2022-07-26T01:47:23.843Z,94.20
2022-07-26T01:49:51.134Z,94.10
2022-07-26T01:52:19.067Z,93.40
2022-07-26T01:54:46.317Z,94.00
2022-07-26T01:57:13.641Z,94.60
2022-07-26T01:59:40.997Z,95.00
2022-07-26T02:02:08.310Z,95.10
2022-07-26T02:04:54.682Z,94.50
2022-07-26T02:07:21.925Z,94.80
2022-07-26T02:09:49.531Z,95.10
2022-07-26T02:12:16.847Z,95.30
2022-07-26T02:14:44.185Z,95.90
2022-07-26T02:17:11.448Z,98.00
2022-07-26T02:19:38.805Z,97.30
2022-07-26T02:22:06.234Z,99.90
2022-07-26T02:24:33.923Z,99.90
2022-07-26T02:27:02.222Z,99.90
2022-07-26T02:29:29.924Z,99.90
2022-07-26T02:31:57.739Z,99.90
2022-07-26T02:34:25.651Z,99.90
2022-07-26T02:36:53.145Z,99.90
2022-07-26T02:39:20.886Z,99.90
2022-07-26T02:41:49.313Z,99.90
2022-07-26T02:44:16.621Z,99.90
2022-07-26T02:46:43.908Z,99.90
2022-07-26T02:49:11.365Z,99.90
2022-07-26T02:51:38.740Z,99.90
2022-07-26T02:54:06.490Z,99.90
2022-07-26T02:56:34.092Z,99.90
2022-07-26T02:59:01.543Z,99.90
2022-07-26T03:01:29.789Z,99.90
2022-07-26T03:03:57.444Z,99.90
2022-07-26T03:06:24.835Z,99.90
2022-07-26T03:08:52.124Z,99.90
2022-07-26T03:11:19.412Z,99.90
2022-07-26T03:13:46.676Z,99.90
2022-07-26T03:16:14.029Z,99.90
2022-07-26T03:18:41.422Z,99.90
2022-07-26T03:21:08.878Z,99.90
2022-07-26T03:23:36.148Z,99.90
2022-07-26T03:26:03.827Z,99.90
2022-07-26T03:28:32.531Z,99.90
2022-07-26T03:31:00.075Z,99.90
2022-07-26T03:33:27.826Z,99.90
2022-07-26T03:35:55.142Z,99.90
2022-07-26T03:38:22.881Z,99.90
2022-07-26T03:40:50.172Z,99.90
2022-07-26T03:43:22.547Z,99.90
2022-07-26T03:45:50.948Z,99.90
2022-07-26T03:48:22.029Z,99.90
2022-07-26T03:50:49.664Z,99.90
2022-07-26T03:53:16.960Z,99.90
2022-07-26T03:56:02.640Z,99.90
2022-07-26T03:58:29.979Z,99.90
2022-07-26T04:00:57.258Z,99.90
2022-07-26T04:03:24.563Z,99.90
2022-07-26T04:05:52.824Z,99.90
2022-07-26T04:08:20.155Z,99.90
2022-07-26T04:10:51.474Z,99.90
2022-07-26T04:13:19.770Z,99.90
2022-07-26T04:15:47.575Z,99.90
2022-07-26T04:18:14.909Z,99.90
2022-07-26T04:20:42.921Z,99.90
2022-07-26T04:23:10.788Z,99.90
2022-07-26T04:25:41.046Z,99.90
2022-07-26T04:28:10.101Z,99.90
2022-07-26T04:30:38.016Z,99.90
2022-07-26T04:33:05.933Z,99.90
2022-07-26T04:35:33.867Z,99.90
2022-07-26T04:38:02.569Z,99.90
2022-07-26T04:40:33.603Z,99.90
2022-07-26T04:43:02.532Z,99.90
2022-07-26T04:45:30.665Z,99.90
2022-07-26T04:47:58.549Z,99.90
2022-07-26T04:50:28.236Z,99.90
2022-07-26T04:52:55.990Z,99.90
2022-07-26T04:55:24.299Z,99.90
2022-07-26T04:57:52.080Z,99.90
2022-07-26T05:00:24.396Z,99.90
2022-07-26T05:02:57.402Z,99.90
2022-07-26T05:05:26.959Z,99.90
2022-07-26T05:07:58.144Z,99.90
2022-07-26T05:10:37.149Z,99.90
2022-07-26T05:13:06.534Z,99.90
2022-07-26T05:15:35.830Z,99.90
2022-07-26T05:18:06.703Z,99.90
2022-07-26T05:20:35.142Z,99.90
2022-07-26T05:23:02.900Z,99.90
2022-07-26T05:25:30.229Z,99.90
2022-07-26T05:27:57.531Z,99.90
2022-07-26T05:30:24.894Z,99.90
2022-07-26T05:32:52.319Z,99.90
2022-07-26T05:35:19.675Z,99.90
2022-07-26T05:37:47.143Z,99.90
2022-07-26T05:40:29.734Z,99.90
2022-07-26T05:42:57.438Z,99.90
2022-07-26T05:45:24.757Z,99.90
2022-07-26T05:47:53.352Z,99.90
2022-07-26T05:50:20.704Z,99.90
2022-07-26T05:52:48.154Z,99.90
2022-07-26T05:55:15.505Z,99.90
2022-07-26T05:57:43.079Z,99.90
2022-07-26T06:00:10.973Z,99.90
2022-07-26T06:02:41.689Z,99.90
2022-07-26T06:05:09.454Z,99.90
2022-07-26T06:07:36.726Z,99.90
2022-07-26T06:10:05.279Z,99.90
2022-07-26T06:12:32.565Z,99.90
2022-07-26T06:14:59.863Z,99.90
2022-07-26T06:17:30.490Z,99.90
2022-07-26T06:19:59.141Z,99.90
2022-07-26T06:22:26.977Z,99.90
2022-07-26T06:24:54.367Z,99.90
2022-07-26T06:27:21.603Z,99.90
2022-07-26T06:29:49.378Z,99.90
2022-07-26T06:32:16.753Z,99.90
2022-07-26T06:34:44.002Z,99.90
2022-07-26T06:37:11.232Z,99.90
2022-07-26T06:39:38.562Z,99.90
2022-07-26T06:42:05.907Z,99.90
2022-07-26T06:44:33.171Z,99.90
2022-07-26T06:47:00.458Z,99.90
2022-07-26T06:49:27.809Z,99.90
2022-07-26T06:51:57.824Z,99.90
2022-07-26T06:54:25.191Z,99.90
2022-07-26T06:56:52.525Z,99.90
2022-07-26T06:59:19.840Z,99.90
2022-07-26T07:01:57.986Z,99.90
2022-07-26T07:04:30.871Z,99.90
2022-07-26T07:07:05.170Z,99.90
2022-07-26T07:09:34.088Z,99.90
2022-07-26T07:12:10.456Z,99.90
2022-07-26T07:14:39.561Z,99.90
2022-07-26T07:17:10.404Z,99.90
2022-07-26T07:19:40.720Z,99.90
2022-07-26T07:22:12.634Z,99.90
2022-07-26T07:24:40.819Z,99.90
2022-07-26T07:27:08.743Z,99.90
2022-07-26T07:29:38.681Z,99.90
2022-07-26T07:32:08.892Z,99.90
2022-07-26T07:34:45.951Z,99.90
2022-07-26T07:37:15.616Z,99.90
2022-07-26T07:39:43.111Z,99.90
2022-07-26T07:42:10.417Z,99.90
2022-07-26T07:44:37.701Z,99.90
2022-07-26T07:47:05.281Z,99.90
2022-07-26T07:49:32.762Z,99.90
2022-07-26T07:52:00.237Z,99.90
2022-07-26T07:54:27.664Z,99.90
2022-07-26T07:56:56.613Z,99.90
2022-07-26T07:59:24.479Z,99.90
2022-07-26T08:01:51.878Z,99.90
2022-07-26T08:04:19.448Z,99.90
2022-07-26T08:06:50.266Z,99.90
2022-07-26T08:09:19.321Z,99.90
2022-07-26T08:11:51.186Z,99.90
2022-07-26T08:14:19.473Z,99.90
2022-07-26T08:16:47.033Z,99.90
2022-07-26T08:19:15.413Z,99.90
2022-07-26T08:21:46.799Z,99.90
2022-07-26T08:24:14.379Z,99.90
2022-07-26T08:26:41.749Z,99.90
2022-07-26T08:29:09.037Z,99.90
2022-07-26T08:31:36.690Z,99.90
2022-07-26T08:34:04.325Z,99.90
2022-07-26T08:36:33.024Z,99.90
2022-07-26T08:39:01.722Z,99.90
2022-07-26T08:41:29.381Z,99.90
2022-07-26T08:44:05.997Z,99.90
2022-07-26T08:46:37.128Z,99.90
2022-07-26T08:49:10.423Z,99.90
2022-07-26T08:51:43.992Z,99.90
2022-07-26T08:54:13.642Z,99.90
2022-07-26T08:56:52.006Z,99.90
2022-07-26T08:59:22.305Z,99.90
2022-07-26T09:01:55.460Z,99.90
2022-07-26T09:04:41.679Z,99.90
2022-07-26T09:07:19.264Z,99.90
2022-07-26T09:09:57.219Z,99.90
2022-07-26T09:12:25.234Z,99.90
2022-07-26T09:14:53.879Z,99.90
2022-07-26T09:17:23.521Z,99.90
2022-07-26T09:20:09.687Z,99.90
2022-07-26T09:22:39.552Z,99.90
2022-07-26T09:25:23.899Z,99.90
2022-07-26T09:27:52.323Z,99.90
2022-07-26T09:30:20.589Z,99.90
2022-07-26T09:33:06.305Z,99.90
2022-07-26T09:35:52.154Z,99.80
2022-07-26T09:38:20.216Z,98.90
2022-07-26T09:40:51.143Z,98.60
2022-07-26T09:43:19.746Z,97.60
2022-07-26T09:46:05.380Z,97.00
2022-07-26T09:48:59.493Z,97.40
2022-07-26T09:51:36.804Z,97.50
2022-07-26T09:54:04.722Z,96.60
2022-07-26T09:56:49.678Z,96.40
2022-07-26T09:59:22.240Z,96.70
2022-07-26T10:01:51.784Z,97.30
2022-07-26T10:04:20.246Z,95.80
2022-07-26T10:06:48.231Z,95.10
2022-07-26T10:09:16.225Z,94.80
2022-07-26T10:11:58.348Z,95.50
2022-07-26T10:14:46.390Z,94.70
2022-07-26T10:17:31.345Z,95.70
2022-07-26T10:20:03.935Z,94.30
2022-07-26T10:22:41.671Z,93.30
2022-07-26T10:25:18.134Z,93.80
2022-07-26T10:27:49.491Z,93.10
2022-07-26T10:30:19.683Z,95.20
2022-07-26T10:33:02.387Z,94.50
2022-07-26T10:35:42.608Z,94.00
2022-07-26T10:38:27.594Z,94.00
2022-07-26T10:40:59.720Z,92.70
2022-07-26T10:43:44.007Z,93.70
2022-07-26T10:46:20.118Z,93.70
2022-07-26T10:49:05.287Z,92.80
2022-07-26T10:51:35.145Z,92.50
2022-07-26T10:54:06.786Z,92.90
2022-07-26T10:56:34.464Z,92.30
2022-07-26T10:59:02.971Z,93.40
2022-07-26T11:01:43.556Z,92.60
2022-07-26T11:04:21.129Z,92.40
2022-07-26T11:06:48.661Z,92.70
2022-07-26T11:09:16.285Z,93.20
2022-07-26T11:11:46.499Z,93.20
2022-07-26T11:14:17.328Z,93.00
2022-07-26T11:16:50.263Z,92.60
2022-07-26T11:19:24.986Z,92.70
2022-07-26T11:22:00.629Z,92.60
2022-07-26T11:24:28.801Z,93.80
2022-07-26T11:27:02.298Z,94.50
2022-07-26T11:29:38.651Z,92.30
2022-07-26T11:32:18.657Z,91.70
2022-07-26T11:34:46.982Z,92.10
2022-07-26T11:37:15.025Z,91.80
2022-07-26T11:39:42.322Z,92.00
2022-07-26T11:42:15.266Z,91.00
2022-07-26T11:44:47.135Z,91.30
2022-07-26T11:47:15.407Z,91.40
2022-07-26T11:50:01.153Z,91.40
2022-07-26T11:52:31.985Z,91.80
2022-07-26T11:54:59.875Z,93.30
2022-07-26T11:57:31.723Z,94.00
2022-07-26T12:00:00.945Z,94.50
2022-07-26T12:02:38.774Z,93.70
2022-07-26T12:05:22.204Z,95.40
2022-07-26T12:07:58.322Z,95.80
2022-07-26T12:10:26.188Z,93.90
2022-07-26T12:13:15.982Z,93.30
2022-07-26T12:15:52.024Z,91.80
2022-07-26T12:18:23.745Z,91.80
2022-07-26T12:21:07.001Z,93.00
2022-07-26T12:23:49.045Z,92.60
2022-07-26T12:26:25.181Z,92.30
2022-07-26T12:28:52.743Z,91.20
2022-07-26T12:31:24.173Z,91.80
2022-07-26T12:33:51.849Z,91.10
2022-07-26T12:36:27.626Z,91.10
2022-07-26T12:38:57.105Z,90.90
2022-07-26T12:41:34.578Z,91.20
2022-07-26T12:44:02.084Z,94.30
2022-07-26T12:46:33.544Z,95.70
2022-07-26T12:49:01.277Z,96.30
2022-07-26T12:51:28.910Z,94.50
2022-07-26T12:53:56.179Z,94.20
2022-07-26T12:56:23.553Z,94.00
2022-07-26T12:58:50.861Z,92.80
2022-07-26T13:01:18.200Z,92.40
2022-07-26T13:03:45.618Z,92.20
2022-07-26T13:06:12.979Z,94.50
2022-07-26T13:08:40.991Z,95.60
2022-07-26T13:11:08.221Z,95.30
2022-07-26T13:13:35.462Z,92.90
2022-07-26T13:16:06.693Z,90.90
2022-07-26T13:18:37.041Z,91.20
2022-07-26T13:21:04.432Z,93.30
2022-07-26T13:23:32.071Z,92.40
2022-07-26T13:26:02.361Z,92.50
2022-07-26T13:28:30.797Z,93.10
2022-07-26T13:30:58.215Z,93.20
2022-07-26T13:33:25.562Z,92.60
2022-07-26T13:35:52.831Z,92.20
2022-07-26T13:38:20.519Z,92.60
2022-07-26T13:40:47.751Z,92.80
2022-07-26T13:43:15.297Z,91.10
2022-07-26T13:45:42.667Z,91.40
2022-07-26T13:48:10.162Z,92.60
2022-07-26T13:50:37.457Z,93.20
2022-07-26T13:53:04.899Z,95.80
2022-07-26T13:55:32.197Z,93.90
2022-07-26T13:57:59.514Z,92.90
2022-07-26T14:00:28.670Z,92.60
2022-07-26T14:02:58.354Z,92.60
2022-07-26T14:05:27.061Z,92.30
2022-07-26T14:07:54.813Z,91.70
2022-07-26T14:10:23.632Z,91.20
2022-07-26T14:12:51.616Z,91.80
2022-07-26T14:15:22.731Z,91.00
2022-07-26T14:17:53.907Z,90.60
2022-07-26T14:20:22.182Z,87.50
2022-07-26T14:22:53.766Z,86.10
2022-07-26T14:25:25.658Z,85.60
2022-07-26T14:27:54.273Z,87.40
2022-07-26T14:30:22.863Z,83.50
2022-07-26T14:32:50.353Z,86.70
2022-07-26T14:35:17.740Z,87.50
2022-07-26T14:37:45.806Z,84.50
2022-07-26T14:40:15.905Z,80.70
2022-07-26T14:42:44.444Z,82.90
2022-07-26T14:45:12.912Z,82.40
2022-07-26T14:47:41.202Z,85.00
2022-07-26T14:50:10.490Z,81.90
2022-07-26T14:52:43.081Z,81.00
2022-07-26T14:55:11.686Z,82.80
2022-07-26T14:57:40.289Z,82.20
2022-07-26T15:00:10.517Z,87.10
2022-07-26T15:02:43.274Z,85.20
2022-07-26T15:05:12.088Z,81.40
2022-07-26T15:07:40.694Z,79.90
2022-07-26T15:10:10.488Z,77.60
2022-07-26T15:12:38.130Z,80.20
2022-07-26T15:15:06.817Z,81.00
2022-07-26T15:17:34.628Z,79.80
2022-07-26T15:20:02.658Z,80.10
2022-07-26T15:22:30.043Z,79.10
2022-07-26T15:24:57.462Z,76.40
2022-07-26T15:27:24.711Z,77.30
2022-07-26T15:29:52.056Z,79.20
2022-07-26T15:32:21.347Z,75.50
2022-07-26T15:34:49.035Z,75.30
2022-07-26T15:37:16.379Z,78.10
2022-07-26T15:39:43.709Z,78.70
2022-07-26T15:42:11.091Z,80.30
2022-07-26T15:44:42.697Z,73.80
2022-07-26T15:47:11.735Z,73.30
2022-07-26T15:49:40.812Z,75.10
2022-07-26T15:52:10.755Z,75.30
2022-07-26T15:54:38.398Z,73.30
2022-07-26T15:57:05.688Z,73.40
2022-07-26T15:59:33.002Z,76.50
2022-07-26T16:02:00.675Z,75.50
2022-07-26T16:04:28.046Z,74.40
2022-07-26T16:06:55.353Z,73.50
2022-07-26T16:09:22.716Z,77.10
2022-07-26T16:11:50.190Z,82.50
2022-07-26T16:14:18.473Z,77.10
2022-07-26T16:16:46.090Z,85.90
2022-07-26T16:19:14.093Z,87.60
2022-07-26T16:21:41.790Z,81.40
2022-07-26T16:24:09.288Z,79.00
2022-07-26T16:26:37.029Z,72.70
2022-07-26T16:29:05.526Z,70.10
2022-07-26T16:31:33.294Z,67.70
2022-07-26T16:34:00.732Z,67.50
2022-07-26T16:36:28.949Z,68.40
2022-07-26T16:38:56.288Z,69.20
2022-07-26T16:41:23.582Z,69.50
2022-07-26T16:43:50.932Z,70.90
2022-07-26T16:46:18.286Z,73.20
2022-07-26T16:48:45.657Z,70.20
2022-07-26T16:51:13.800Z,76.30
2022-07-26T16:53:41.806Z,76.50
2022-07-26T16:56:09.951Z,76.60
2022-07-26T16:58:37.907Z,79.10
2022-07-26T17:01:05.364Z,84.20
2022-07-26T17:03:32.670Z,82.90
2022-07-26T17:06:06.105Z,82.90
2022-07-26T17:08:34.397Z,82.20
2022-07-26T17:11:01.913Z,84.40
2022-07-26T17:13:29.301Z,80.60
2022-07-26T17:15:56.769Z,83.80
2022-07-26T17:18:24.438Z,83.50
2022-07-26T17:20:51.807Z,86.00
2022-07-26T17:23:19.710Z,85.30
2022-07-26T17:25:47.338Z,82.70
2022-07-26T17:28:14.653Z,78.80
2022-07-26T17:30:41.964Z,75.10
2022-07-26T17:33:09.367Z,71.40
2022-07-26T17:35:36.753Z,70.40
2022-07-26T17:38:05.046Z,68.70
2022-07-26T17:40:33.892Z,68.60
2022-07-26T17:43:01.261Z,71.40
2022-07-26T17:45:28.523Z,71.80
2022-07-26T17:47:55.794Z,70.10
2022-07-26T17:50:38.876Z,73.20
2022-07-26T17:53:06.372Z,76.10
2022-07-26T17:55:34.136Z,77.20
2022-07-26T17:58:01.490Z,78.60
2022-07-26T18:00:29.546Z,78.50
2022-07-26T18:02:58.058Z,82.90
2022-07-26T18:05:32.408Z,85.60
2022-07-26T18:08:01.680Z,85.70
2022-07-26T18:10:29.236Z,82.70
2022-07-26T18:12:56.602Z,85.60
2022-07-26T18:15:23.907Z,87.90
2022-07-26T18:17:51.259Z,84.50
2022-07-26T18:20:18.504Z,95.50
2022-07-26T18:22:50.163Z,99.90
2022-07-26T18:25:17.912Z,99.90
2022-07-26T18:27:45.192Z,99.90
2022-07-26T18:30:12.696Z,99.90
2022-07-26T18:32:39.923Z,99.90
2022-07-26T18:35:07.505Z,99.90
2022-07-26T18:37:34.753Z,99.90
2022-07-26T18:40:02.278Z,99.90
2022-07-26T18:42:29.533Z,99.90
2022-07-26T18:44:56.893Z,99.90
2022-07-26T18:47:24.331Z,99.90
2022-07-26T18:49:51.644Z,99.90
2022-07-26T18:52:28.806Z,99.90
2022-07-26T18:55:01.334Z,99.90
2022-07-26T18:57:28.573Z,99.90
2022-07-26T18:59:55.849Z,99.90
2022-07-26T19:02:23.144Z,99.90
2022-07-26T19:04:50.403Z,99.90
2022-07-26T19:07:17.683Z,99.90
2022-07-26T19:09:45.067Z,99.90
2022-07-26T19:12:12.325Z,99.90
2022-07-26T19:14:39.612Z,99.90
2022-07-26T19:17:10.097Z,99.90
2022-07-26T19:19:38.271Z,99.90
2022-07-26T19:22:06.128Z,99.90
2022-07-26T19:24:41.971Z,99.90
2022-07-26T19:27:09.693Z,97.00
2022-07-26T19:29:38.035Z,96.90
2022-07-26T19:32:06.385Z,96.00
2022-07-26T19:34:33.663Z,95.60
2022-07-26T19:37:00.911Z,95.40
2022-07-26T19:39:28.483Z,95.60
2022-07-26T19:41:55.916Z,95.70
2022-07-26T19:44:23.349Z,96.20
2022-07-26T19:46:55.562Z,98.20
2022-07-26T19:49:24.680Z,99.90
2022-07-26T19:51:51.988Z,99.90
2022-07-26T19:54:19.383Z,99.90
2022-07-26T19:56:46.695Z,99.90
2022-07-26T19:59:18.060Z,99.90
2022-07-26T20:01:50.154Z,99.90
2022-07-26T20:04:17.480Z,99.90
2022-07-26T20:06:44.892Z,99.90
2022-07-26T20:09:12.455Z,99.90
2022-07-26T20:11:39.996Z,99.90
2022-07-26T20:14:07.393Z,99.90
2022-07-26T20:16:34.818Z,99.90
2022-07-26T20:19:02.142Z,99.90
2022-07-26T20:21:29.433Z,99.90
2022-07-26T20:23:56.684Z,99.90
2022-07-26T20:26:24.203Z,99.90
2022-07-26T20:28:51.528Z,99.90
2022-07-26T20:31:18.838Z,99.90
2022-07-26T20:33:46.330Z,99.90
2022-07-26T20:36:13.627Z,99.90
2022-07-26T20:38:41.022Z,99.90
2022-07-26T20:41:08.553Z,99.90
2022-07-26T20:43:35.826Z,99.90
2022-07-26T20:46:03.412Z,99.90
2022-07-26T20:48:30.712Z,99.90
2022-07-26T20:50:58.257Z,99.90
2022-07-26T20:53:25.574Z,99.90
2022-07-26T20:55:53.314Z,99.90
2022-07-26T20:58:21.802Z,99.90
2022-07-26T21:00:49.129Z,99.90
2022-07-26T21:03:17.429Z,99.90
2022-07-26T21:05:45.276Z,99.90
2022-07-26T21:08:13.198Z,99.90
2022-07-26T21:10:40.511Z,99.90
2022-07-26T21:13:07.819Z,99.90
2022-07-26T21:15:35.607Z,99.90
2022-07-26T21:18:03.000Z,99.90
2022-07-26T21:20:31.340Z,99.90
2022-07-26T21:23:12.757Z,99.90
2022-07-26T21:25:43.581Z,99.90
2022-07-26T21:28:10.901Z,99.90
2022-07-26T21:30:38.243Z,99.90
2022-07-26T21:33:05.682Z,99.90
2022-07-26T21:35:33.177Z,99.90
2022-07-26T21:38:00.417Z,99.90
2022-07-26T21:40:27.874Z,99.90
2022-07-26T21:42:55.198Z,99.90
2022-07-26T21:45:22.523Z,99.90
2022-07-26T21:47:49.778Z,99.90
2022-07-26T21:50:17.080Z,99.90
2022-07-26T21:52:44.351Z,99.90
2022-07-26T21:55:15.538Z,99.90
2022-07-26T21:57:45.689Z,99.90
2022-07-26T22:00:14.877Z,99.90
2022-07-26T22:02:42.413Z,99.90
2022-07-26T22:05:28.420Z,99.90
2022-07-26T22:07:56.150Z,99.90
2022-07-26T22:10:23.753Z,99.90
2022-07-26T22:12:51.194Z,99.90
2022-07-26T22:15:18.648Z,99.90
2022-07-26T22:17:46.130Z,99.90
2022-07-26T22:20:13.659Z,99.90
2022-07-26T22:22:40.900Z,99.90
2022-07-26T22:25:08.724Z,99.90
2022-07-26T22:27:36.069Z,99.90
2022-07-26T22:30:04.553Z,99.90
2022-07-26T22:32:31.910Z,99.90
2022-07-26T22:34:59.283Z,99.90
2022-07-26T22:37:26.584Z,99.90
2022-07-26T22:39:53.826Z,99.90
2022-07-26T22:42:21.118Z,99.90
2022-07-26T22:44:48.359Z,99.90
2022-07-26T22:47:15.760Z,99.90
2022-07-26T22:49:43.120Z,99.90
2022-07-26T22:52:10.424Z,99.90
2022-07-26T22:54:37.772Z,99.90
2022-07-26T22:57:05.137Z,99.90
2022-07-26T22:59:32.473Z,99.90
2022-07-26T23:01:59.857Z,99.90
2022-07-26T23:04:27.211Z,99.90
2022-07-26T23:06:55.223Z,99.90
2022-07-26T23:09:22.564Z,99.90
2022-07-26T23:11:49.865Z,99.90
2022-07-26T23:14:17.121Z,99.90
2022-07-26T23:16:44.480Z,99.90
2022-07-26T23:19:12.021Z,99.90
2022-07-26T23:21:39.608Z,99.90
2022-07-26T23:24:07.298Z,99.90
2022-07-26T23:26:34.618Z,99.90
2022-07-26T23:29:01.894Z,99.90
2022-07-26T23:31:29.359Z,99.90
2022-07-26T23:33:56.764Z,99.90
2022-07-26T23:36:28.900Z,99.90
2022-07-26T23:38:58.021Z,99.90
2022-07-26T23:41:25.898Z,99.90
2022-07-26T23:43:54.456Z,99.90
2022-07-26T23:46:22.532Z,99.90
2022-07-26T23:48:50.472Z,99.90
2022-07-26T23:51:18.048Z,99.90
2022-07-26T23:53:45.617Z,99.90
2022-07-26T23:56:13.144Z,99.90
2022-07-26T23:58:40.546Z,99.90
